createdAt,value
2022-12-25T00:00:46.438Z,99707.60
2022-12-25T00:01:53.483Z,99709.33
2022-12-25T00:02:58.859Z,99708.48
2022-12-25T00:04:02.307Z,99710.17
2022-12-25T00:05:06.070Z,99708.48
2022-12-25T00:06:08.736Z,99712.00
2022-12-25T00:07:11.771Z,99713.83
2022-12-25T00:08:14.664Z,99717.36
2022-12-25T00:09:17.809Z,99714.67
2022-12-25T00:10:22.395Z,99712.84
2022-12-25T00:11:25.219Z,99717.24
2022-12-25T00:12:27.531Z,99715.52
2022-12-25T00:13:30.301Z,99718.20
2022-12-25T00:14:32.664Z,99718.20
2022-12-25T00:15:35.047Z,99722.70
2022-12-25T00:16:38.405Z,99719.07
2022-12-25T00:17:41.088Z,99720.88
2022-12-25T00:18:46.076Z,99721.86
2022-12-25T00:19:48.697Z,99722.70
2022-12-25T00:21:02.263Z,99726.34
2022-12-25T00:22:06.215Z,99730.73
2022-12-25T00:23:08.845Z,99729.02
2022-12-25T00:24:11.220Z,99730.84
2022-12-25T00:25:13.730Z,99730.84
2022-12-25T00:26:17.954Z,99730.84
2022-12-25T00:27:21.416Z,99738.00
2022-12-25T00:28:24.120Z,99741.55
2022-12-25T00:29:26.531Z,99738.99
2022-12-25T00:30:30.358Z,99739.84
2022-12-25T00:31:34.093Z,99741.67
2022-12-25T00:32:37.136Z,99739.84
2022-12-25T00:33:40.529Z,99738.11
2022-12-25T00:34:43.002Z,99730.09
2022-12-25T00:35:47.656Z,99736.43
2022-12-25T00:36:51.157Z,99736.43
2022-12-25T00:37:53.634Z,99738.23
2022-12-25T00:38:56.728Z,99734.70
2022-12-25T00:39:59.203Z,99736.54
2022-12-25T00:42:24.302Z,99737.59
2022-12-25T00:43:26.698Z,99737.50
2022-12-25T00:44:30.678Z,99740.17
2022-12-25T00:45:34.285Z,99738.34
2022-12-25T00:46:37.733Z,99739.30
2022-12-25T00:47:40.797Z,99746.48
2022-12-25T00:48:45.031Z,99731.27
2022-12-25T00:49:47.720Z,99737.61
2022-12-25T00:50:58.429Z,99737.61
2022-12-25T00:52:00.897Z,99735.77
2022-12-25T00:53:03.113Z,99733.09
2022-12-25T00:54:06.322Z,99734.93
2022-12-25T00:55:09.682Z,99732.25
2022-12-25T00:56:12.604Z,99734.93
2022-12-25T00:57:15.209Z,99736.73
2022-12-25T00:58:18.597Z,99741.23
2022-12-25T00:59:21.906Z,99746.48
2022-12-25T01:00:25.173Z,99737.61
2022-12-25T01:01:28.208Z,99740.28
2022-12-25T01:02:30.873Z,99744.76
2022-12-25T01:03:33.626Z,99740.28
2022-12-25T01:04:36.196Z,99741.23
2022-12-25T01:05:39.647Z,99739.41
2022-12-25T01:06:42.403Z,99742.08
2022-12-25T01:07:44.739Z,99742.19
2022-12-25T01:09:06.242Z,99738.56
2022-12-25T01:10:22.192Z,99739.41
2022-12-25T01:11:25.582Z,99738.56
2022-12-25T01:12:28.088Z,99737.72
2022-12-25T01:13:31.726Z,99737.80
2022-12-25T01:14:34.571Z,99740.47
2022-12-25T01:15:37.353Z,99737.80
2022-12-25T01:16:40.186Z,99733.44
2022-12-25T01:17:42.927Z,99740.59
2022-12-25T01:18:46.101Z,99735.23
2022-12-25T01:19:50.049Z,99741.46
2022-12-25T01:20:52.772Z,99746.81
2022-12-25T01:21:55.404Z,99744.14
2022-12-25T01:22:57.991Z,99746.81
2022-12-25T01:24:00.312Z,99749.48
2022-12-25T01:25:04.445Z,99748.61
2022-12-25T01:26:08.497Z,99753.85
2022-12-25T01:27:11.510Z,99750.33
2022-12-25T01:28:15.555Z,99753.02
2022-12-25T01:29:18.036Z,99749.48
2022-12-25T01:30:22.193Z,99748.61
2022-12-25T01:31:24.943Z,99750.33
2022-12-25T01:32:27.478Z,99757.52
2022-12-25T01:33:31.304Z,99747.66
2022-12-25T01:34:35.039Z,99745.09
2022-12-25T01:35:39.538Z,99754.84
2022-12-25T01:36:42.810Z,99752.28
2022-12-25T01:37:45.275Z,99752.28
2022-12-25T01:38:48.296Z,99743.38
2022-12-25T01:39:52.023Z,99748.83
2022-12-25T01:40:54.730Z,99752.36
2022-12-25T01:41:57.247Z,99750.67
2022-12-25T01:42:59.829Z,99749.79
2022-12-25T01:44:08.818Z,99751.63
2022-12-25T01:46:46.693Z,99751.83
2022-12-25T01:47:49.867Z,99757.93
2022-12-25T01:48:55.207Z,99755.36
2022-12-25T01:49:58.126Z,99752.80
2022-12-25T01:51:04.668Z,99754.63
2022-12-25T01:52:20.280Z,99759.10
2022-12-25T01:53:21.131Z,99761.78
2022-12-25T01:55:40.433Z,99750.45
2022-12-25T01:56:45.154Z,99758.37
2022-12-25T01:57:47.837Z,99748.08
2022-12-25T01:58:50.310Z,99748.08
2022-12-25T01:59:52.613Z,99753.97
2022-12-25T02:00:55.228Z,99763.83
2022-12-25T02:01:58.027Z,99751.30
2022-12-25T02:03:01.112Z,99761.05
2022-12-25T02:05:27.999Z,99754.08
2022-12-25T02:06:31.124Z,99755.80
2022-12-25T02:07:37.212Z,99752.25
2022-12-25T02:08:40.984Z,99755.91
2022-12-25T02:09:44.100Z,99753.23
2022-12-25T02:10:46.625Z,99756.76
2022-12-25T02:11:58.704Z,99755.80
2022-12-25T02:13:02.038Z,99757.60
2022-12-25T02:14:04.955Z,99761.05
2022-12-25T02:15:19.757Z,99761.05
2022-12-25T02:16:23.148Z,99758.37
2022-12-25T02:19:12.811Z,99753.12
2022-12-25T02:20:35.253Z,99757.49
2022-12-25T02:21:42.222Z,99769.18
2022-12-25T02:22:59.232Z,99768.30
2022-12-25T02:24:11.392Z,99765.63
2022-12-25T02:25:35.815Z,99693.03
2022-12-25T02:26:45.092Z,99769.30
2022-12-25T02:27:58.176Z,99772.92
2022-12-25T02:30:35.453Z,99771.31
2022-12-25T02:31:44.769Z,99778.38
2022-12-25T02:33:00.694Z,99776.66
2022-12-25T02:34:13.219Z,99774.83
2022-12-25T02:35:27.360Z,99779.34
2022-12-25T02:36:56.376Z,99780.18
2022-12-25T02:38:06.064Z,99777.50
2022-12-25T02:39:46.631Z,99783.73
2022-12-25T02:40:55.763Z,99782.86
2022-12-25T02:41:59.894Z,99778.48
2022-12-25T02:43:22.930Z,99782.12
2022-12-25T02:44:43.986Z,99790.14
2022-12-25T02:46:21.248Z,99790.25
2022-12-25T02:49:02.320Z,99787.91
2022-12-25T02:50:25.773Z,99791.20
2022-12-25T02:51:48.082Z,99791.31
2022-12-25T02:53:08.727Z,99794.95
2022-12-25T02:54:32.527Z,99797.62
2022-12-25T02:55:56.065Z,99799.45
2022-12-25T02:57:17.371Z,99795.90
2022-12-25T02:58:39.149Z,99801.36
2022-12-25T03:00:01.029Z,99801.36
2022-12-25T03:01:29.440Z,99800.51
2022-12-25T03:02:51.842Z,99805.02
2022-12-25T03:04:14.588Z,99803.30
2022-12-25T03:05:38.143Z,99802.45
2022-12-25T03:06:43.547Z,99807.80
2022-12-25T03:07:46.466Z,99810.55
2022-12-25T03:08:51.758Z,99810.55
2022-12-25T03:10:16.578Z,99803.40
2022-12-25T03:11:31.697Z,99812.27
2022-12-25T03:12:49.406Z,99815.83
2022-12-25T03:13:54.681Z,99807.80
2022-12-25T03:15:15.813Z,99809.59
2022-12-25T03:16:39.558Z,99811.31
2022-12-25T03:17:42.533Z,99814.00
2022-12-25T03:18:45.531Z,99810.37
2022-12-25T03:20:07.368Z,99807.69
2022-12-25T03:21:28.214Z,99807.69
2022-12-25T03:22:50.775Z,99811.21
2022-12-25T03:24:13.774Z,99816.56
2022-12-25T03:25:34.959Z,99815.61
2022-12-25T03:26:56.890Z,99814.73
2022-12-25T03:27:59.501Z,99824.59
2022-12-25T03:29:01.894Z,99821.91
2022-12-25T03:30:23.914Z,99821.06
2022-12-25T03:33:45.087Z,99822.14
2022-12-25T03:35:16.680Z,99832.72
2022-12-25T03:38:21.996Z,99830.28
2022-12-25T03:39:46.602Z,99837.30
2022-12-25T03:42:58.149Z,99834.86
2022-12-25T03:44:21.232Z,99836.56
2022-12-25T03:45:45.948Z,99841.06
2022-12-25T03:47:10.703Z,99839.34
2022-12-25T03:48:13.129Z,99838.46
2022-12-25T03:49:46.742Z,99840.30
2022-12-25T03:51:13.243Z,99835.79
2022-12-25T03:52:34.919Z,99844.69
2022-12-25T03:54:05.633Z,99846.48
2022-12-25T03:55:28.270Z,99842.97
2022-12-25T03:56:49.517Z,99847.47
2022-12-25T03:58:10.347Z,99840.37
2022-12-25T03:59:32.284Z,99846.67
2022-12-25T04:00:53.357Z,99842.20
2022-12-25T04:02:14.671Z,99845.82
2022-12-25T04:03:36.092Z,99849.34
2022-12-25T04:04:57.030Z,99844.95
2022-12-25T04:06:18.064Z,99847.62
2022-12-25T04:07:38.932Z,99851.17
2022-12-25T04:09:00.145Z,99852.97
2022-12-25T04:10:21.946Z,99851.17
2022-12-25T04:11:43.716Z,99854.80
2022-12-25T04:13:04.726Z,99849.45
2022-12-25T04:14:25.515Z,99853.84
2022-12-25T04:15:46.191Z,99856.52
2022-12-25T04:17:07.764Z,99855.64
2022-12-25T04:18:28.778Z,99864.55
2022-12-25T04:19:50.613Z,99859.20
2022-12-25T04:21:12.307Z,99856.52
2022-12-25T04:22:33.095Z,99862.72
2022-12-25T04:23:53.948Z,99863.67
2022-12-25T04:25:15.243Z,99864.55
2022-12-25T04:26:37.649Z,99860.14
2022-12-25T04:27:58.878Z,99864.55
2022-12-25T04:29:19.843Z,99865.50
2022-12-25T04:30:41.009Z,99866.34
2022-12-25T04:32:01.743Z,99869.02
2022-12-25T04:33:24.886Z,99864.55
2022-12-25T04:34:45.592Z,99873.41
2022-12-25T04:36:07.221Z,99872.57
2022-12-25T04:37:10.599Z,99875.24
2022-12-25T04:38:14.134Z,99868.94
2022-12-25T04:39:16.761Z,99867.22
2022-12-25T04:40:19.661Z,99876.97
2022-12-25T04:41:24.172Z,99876.02
2022-12-25T04:42:26.709Z,99874.11
2022-12-25T04:43:29.132Z,99874.11
2022-12-25T04:44:31.498Z,99881.19
2022-12-25T04:45:35.184Z,99882.88
2022-12-25T04:46:37.919Z,99887.17
2022-12-25T04:47:40.300Z,99887.17
2022-12-25T04:48:43.462Z,99889.84
2022-12-25T04:49:45.775Z,99884.39
2022-12-25T04:50:48.915Z,99888.79
2022-12-25T04:51:51.227Z,99890.52
2022-12-25T04:52:54.438Z,99895.76
2022-12-25T04:53:57.202Z,99899.28
2022-12-25T04:55:00.567Z,99893.82
2022-12-25T04:56:03.663Z,99894.70
2022-12-25T04:57:06.123Z,99889.25
2022-12-25T04:58:08.560Z,99898.11
2022-12-25T04:59:11.174Z,99894.48
2022-12-25T05:00:15.525Z,99895.33
2022-12-25T05:01:18.153Z,99898.89
2022-12-25T05:02:20.848Z,99899.73
2022-12-25T05:03:24.673Z,99908.61
2022-12-25T05:04:27.807Z,99904.23
2022-12-25T05:05:31.205Z,99908.61
2022-12-25T05:06:34.261Z,99903.25
2022-12-25T05:07:37.246Z,99906.81
2022-12-25T05:08:39.772Z,99900.50
2022-12-25T05:09:44.140Z,99902.63
2022-12-25T05:10:48.396Z,99903.18
2022-12-25T05:11:51.129Z,99907.55
2022-12-25T05:12:53.550Z,99908.42
2022-12-25T05:13:56.877Z,99914.63
2022-12-25T05:14:59.758Z,99911.95
2022-12-25T05:17:37.198Z,99913.80
2022-12-25T05:18:39.444Z,99916.45
2022-12-25T05:19:43.457Z,99919.13
2022-12-25T05:22:05.844Z,99916.59
2022-12-25T05:23:11.362Z,99924.59
2022-12-25T05:24:13.920Z,99919.23
2022-12-25T05:25:16.403Z,99922.75
2022-12-25T05:26:23.597Z,99925.43
2022-12-25T05:27:27.087Z,99920.92
2022-12-25T05:28:29.969Z,99928.95
2022-12-25T05:29:32.500Z,99931.63
2022-12-25T05:30:35.545Z,99930.78
2022-12-25T05:31:38.326Z,99931.63
2022-12-25T05:32:40.678Z,99930.78
2022-12-25T05:33:43.173Z,99927.27
2022-12-25T05:34:46.534Z,99936.14
2022-12-25T05:35:49.826Z,99930.78
2022-12-25T05:36:52.772Z,99938.81
2022-12-25T05:37:55.312Z,99928.11
2022-12-25T05:38:59.002Z,99931.63
2022-12-25T05:40:02.042Z,99936.14
2022-12-25T05:41:04.951Z,99939.66
2022-12-25T05:42:10.667Z,99943.21
2022-12-25T05:43:13.849Z,99940.53
2022-12-25T05:44:16.428Z,99936.03
2022-12-25T05:45:18.920Z,99937.86
2022-12-25T05:46:23.012Z,99950.25
2022-12-25T05:47:25.341Z,99950.25
2022-12-25T05:48:27.657Z,99948.45
2022-12-25T05:49:30.175Z,99944.91
2022-12-25T05:50:32.846Z,99952.93
2022-12-25T05:51:40.912Z,99947.58
2022-12-25T05:52:43.662Z,99953.91
2022-12-25T05:53:46.417Z,99951.23
2022-12-25T05:54:48.797Z,99958.28
2022-12-25T05:55:51.457Z,99958.28
2022-12-25T05:56:53.847Z,99963.63
2022-12-25T05:57:57.410Z,99966.31
2022-12-25T05:59:01.027Z,99967.19
2022-12-25T06:00:05.164Z,99968.98
2022-12-25T06:02:24.488Z,99961.09
2022-12-25T06:03:29.109Z,99967.19
2022-12-25T06:04:32.765Z,99971.66
2022-12-25T06:05:37.585Z,99970.81
2022-12-25T06:06:41.222Z,99964.62
2022-12-25T06:07:43.772Z,99968.98
2022-12-25T06:08:46.598Z,99964.51
2022-12-25T06:09:49.907Z,99972.54
2022-12-25T06:10:52.274Z,99968.98
2022-12-25T06:11:55.465Z,99968.88
2022-12-25T06:12:58.692Z,99975.22
2022-12-25T06:14:00.928Z,99973.38
2022-12-25T06:15:05.033Z,99973.38
2022-12-25T06:16:08.972Z,99970.71
2022-12-25T06:17:11.402Z,99975.22
2022-12-25T06:18:14.408Z,99978.73
2022-12-25T06:19:17.604Z,99981.41
2022-12-25T06:20:20.105Z,99986.77
2022-12-25T06:21:24.292Z,99984.09
2022-12-25T06:22:30.728Z,99982.26
2022-12-25T06:23:34.422Z,99992.96
2022-12-25T06:24:36.767Z,99985.81
2022-12-25T06:25:39.857Z,99992.96
2022-12-25T06:26:42.296Z,99990.28
2022-12-25T06:27:45.121Z,99993.84
2022-12-25T06:28:48.312Z,99995.64
2022-12-25T06:29:52.551Z,99995.64
2022-12-25T06:30:55.066Z,99991.16
2022-12-25T06:31:58.342Z,100001.88
2022-12-25T06:33:01.505Z,100002.72
2022-12-25T06:34:03.948Z,99999.09
2022-12-25T06:35:07.696Z,100002.61
2022-12-25T06:36:19.694Z,100005.29
2022-12-25T06:37:22.336Z,100000.04
2022-12-25T06:38:24.730Z,100002.61
2022-12-25T06:39:28.717Z,99999.09
2022-12-25T06:40:32.401Z,99999.19
2022-12-25T06:41:35.318Z,100004.55
2022-12-25T06:42:38.968Z,99996.52
2022-12-25T06:43:41.731Z,100001.88
2022-12-25T06:44:44.729Z,100004.44
2022-12-25T06:45:50.112Z,100001.77
2022-12-25T06:46:53.813Z,100008.95
2022-12-25T06:47:57.301Z,100006.27
2022-12-25T06:49:00.836Z,100013.42
2022-12-25T06:50:06.292Z,100006.27
2022-12-25T06:51:08.763Z,100013.31
2022-12-25T06:52:11.957Z,100010.64
2022-12-25T06:53:14.831Z,100011.52
2022-12-25T06:54:17.348Z,100010.64
2022-12-25T06:55:21.065Z,100016.87
2022-12-25T06:56:27.314Z,100013.21
2022-12-25T06:57:30.459Z,100013.21
2022-12-25T06:58:34.147Z,100019.44
2022-12-25T06:59:36.829Z,100015.89
2022-12-25T07:00:39.319Z,100019.44
2022-12-25T07:01:48.402Z,100021.23
2022-12-25T07:02:51.401Z,100022.12
2022-12-25T07:03:57.237Z,100030.15
2022-12-25T07:05:00.325Z,100028.42
2022-12-25T07:06:03.166Z,100027.58
2022-12-25T07:07:09.345Z,100035.50
2022-12-25T07:08:11.025Z,100035.60
2022-12-25T07:09:13.799Z,100031.94
2022-12-25T07:10:19.588Z,100031.94
2022-12-25T07:11:24.036Z,100035.50
2022-12-25T07:12:28.008Z,100038.17
2022-12-25T07:13:30.374Z,100043.53
2022-12-25T07:14:33.657Z,100032.92
2022-12-25T07:15:38.152Z,100041.80
2022-12-25T07:16:40.727Z,100045.32
2022-12-25T07:17:43.588Z,100039.97
2022-12-25T07:18:46.423Z,100043.53
2022-12-25T07:19:49.588Z,100047.05
2022-12-25T07:20:52.252Z,100046.20
2022-12-25T07:21:55.741Z,100049.72
2022-12-25T07:22:59.084Z,100044.11
2022-12-25T07:24:02.980Z,100044.11
2022-12-25T07:25:06.321Z,100063.11
2022-12-25T07:26:09.285Z,100061.31
2022-12-25T07:27:14.403Z,100063.98
2022-12-25T07:28:17.474Z,100059.58
2022-12-25T07:29:19.962Z,100062.16
2022-12-25T07:30:22.469Z,100065.78
2022-12-25T07:31:25.300Z,100059.58
2022-12-25T07:32:30.602Z,100065.78
2022-12-25T07:33:33.439Z,100066.66
2022-12-25T07:34:36.300Z,100064.94
2022-12-25T07:35:38.836Z,100077.37
2022-12-25T07:36:42.815Z,100072.86
2022-12-25T07:37:47.054Z,100072.97
2022-12-25T07:38:50.080Z,100077.37
2022-12-25T07:39:53.520Z,100075.54
2022-12-25T07:40:56.579Z,100077.37
2022-12-25T07:41:58.948Z,100073.81
2022-12-25T07:43:04.475Z,100080.05
2022-12-25T07:44:07.298Z,100076.39
2022-12-25T07:45:12.053Z,100074.69
2022-12-25T07:46:15.816Z,100074.69
2022-12-25T07:47:18.607Z,100076.48
2022-12-25T07:48:20.908Z,100073.81
2022-12-25T07:49:24.064Z,100073.81
2022-12-25T07:50:27.720Z,100078.22
2022-12-25T07:51:30.255Z,100082.72
2022-12-25T07:52:35.472Z,100085.39
2022-12-25T07:53:37.108Z,100088.08
2022-12-25T07:54:41.085Z,100088.08
2022-12-25T07:55:46.600Z,100088.92
2022-12-25T07:56:53.761Z,100093.42
2022-12-25T07:57:57.260Z,100089.87
2022-12-25T07:58:59.622Z,100086.34
2022-12-25T08:00:04.540Z,100091.70
2022-12-25T08:01:17.613Z,100096.17
2022-12-25T08:02:22.251Z,100100.58
2022-12-25T08:03:25.638Z,100099.72
2022-12-25T08:04:30.200Z,100097.90
2022-12-25T08:05:33.697Z,100090.75
2022-12-25T08:06:36.382Z,100086.34
2022-12-25T08:07:39.659Z,100095.22
2022-12-25T08:08:42.802Z,100099.72
2022-12-25T08:09:47.458Z,100096.09
2022-12-25T08:10:50.175Z,100093.42
2022-12-25T08:11:52.477Z,100094.27
2022-12-25T08:12:57.612Z,100096.09
2022-12-25T08:14:01.353Z,100099.62
2022-12-25T08:15:05.473Z,100096.00
2022-12-25T08:16:09.271Z,100102.20
2022-12-25T08:17:13.153Z,100099.52
2022-12-25T08:18:16.290Z,100102.09
2022-12-25T08:19:19.634Z,100095.89
2022-12-25T08:20:24.332Z,100102.09
2022-12-25T08:21:26.868Z,100103.83
2022-12-25T08:22:30.005Z,100101.99
2022-12-25T08:23:34.614Z,100103.72
2022-12-25T08:24:38.147Z,100100.20
2022-12-25T08:25:42.347Z,100106.39
2022-12-25T08:26:45.186Z,100102.77
2022-12-25T08:27:47.603Z,100100.94
2022-12-25T08:28:50.609Z,100100.94
2022-12-25T08:29:54.196Z,100098.27
2022-12-25T08:30:58.813Z,100098.27
2022-12-25T08:32:01.496Z,100096.44
2022-12-25T08:33:05.140Z,100093.76
2022-12-25T08:34:09.173Z,100096.44
2022-12-25T08:35:11.667Z,100103.52
2022-12-25T08:36:14.700Z,100101.79
2022-12-25T08:37:17.173Z,100108.02
2022-12-25T08:38:19.700Z,100108.87
2022-12-25T08:39:23.187Z,100113.38
2022-12-25T08:40:25.811Z,100114.22
2022-12-25T08:41:29.526Z,100117.78
2022-12-25T08:42:32.488Z,100117.78
2022-12-25T08:43:35.674Z,100117.78
2022-12-25T08:44:39.095Z,100115.10
2022-12-25T08:45:43.543Z,100111.55
2022-12-25T08:46:46.646Z,100112.42
2022-12-25T08:47:54.901Z,100113.27
2022-12-25T08:48:58.026Z,100118.63
2022-12-25T08:50:00.406Z,100111.44
2022-12-25T08:51:04.241Z,100121.30
2022-12-25T08:52:07.277Z,100122.15
2022-12-25T08:53:10.268Z,100119.47
2022-12-25T08:54:13.835Z,100122.15
2022-12-25T08:55:16.428Z,100123.03
2022-12-25T08:56:20.223Z,100119.47
2022-12-25T08:57:22.660Z,100120.35
2022-12-25T08:58:28.018Z,100124.83
2022-12-25T08:59:31.957Z,100122.05
2022-12-25T09:00:35.875Z,100126.55
2022-12-25T09:01:39.919Z,100123.03
2022-12-25T09:02:43.128Z,100125.70
2022-12-25T09:03:46.340Z,100123.03
2022-12-25T09:04:49.768Z,100125.60
2022-12-25T09:05:52.803Z,100130.08
2022-12-25T09:06:55.345Z,100124.72
2022-12-25T09:07:58.689Z,100126.45
2022-12-25T09:09:01.573Z,100126.45
2022-12-25T09:10:05.517Z,100130.08
2022-12-25T09:11:10.989Z,100133.63
2022-12-25T09:12:13.477Z,100127.40
2022-12-25T09:13:17.445Z,100129.13
2022-12-25T09:14:21.158Z,100134.48
2022-12-25T09:15:23.649Z,100130.95
2022-12-25T09:16:27.161Z,100132.75
2022-12-25T09:17:31.138Z,100131.80
2022-12-25T09:18:33.651Z,100128.28
2022-12-25T09:19:36.517Z,100133.63
2022-12-25T09:20:39.841Z,100130.95
2022-12-25T09:21:42.677Z,100130.95
2022-12-25T09:22:44.994Z,100130.08
2022-12-25T09:23:47.310Z,100144.34
2022-12-25T09:24:51.015Z,100134.48
2022-12-25T09:25:54.166Z,100134.48
2022-12-25T09:26:58.272Z,100146.06
2022-12-25T09:28:00.714Z,100140.71
2022-12-25T09:29:03.939Z,100134.48
2022-12-25T09:30:08.026Z,100135.36
2022-12-25T09:31:10.483Z,100140.71
2022-12-25T09:32:13.302Z,100136.21
2022-12-25T09:33:16.798Z,100136.21
2022-12-25T09:34:19.428Z,100141.56
2022-12-25T09:35:21.956Z,100149.59
2022-12-25T09:36:24.998Z,100141.56
2022-12-25T09:37:28.870Z,100142.41
2022-12-25T09:38:32.494Z,100149.59
2022-12-25T09:39:38.221Z,100151.32
2022-12-25T09:40:41.434Z,100156.67
2022-12-25T09:41:56.427Z,100157.52
2022-12-25T09:42:59.560Z,100152.16
2022-12-25T09:44:12.349Z,100151.32
2022-12-25T09:46:37.224Z,100152.44
2022-12-25T09:47:39.815Z,100154.09
2022-12-25T09:48:46.001Z,100160.30
2022-12-25T09:50:13.070Z,100153.22
2022-12-25T09:51:17.102Z,100152.47
2022-12-25T09:53:50.872Z,100155.31
2022-12-25T09:55:00.235Z,100165.75
2022-12-25T09:56:15.770Z,100162.30
2022-12-25T09:57:19.146Z,100164.12
2022-12-25T09:58:21.507Z,100163.28
2022-12-25T09:59:25.352Z,100157.05
2022-12-25T10:00:35.080Z,100158.87
2022-12-25T10:03:22.901Z,100164.50
2022-12-25T10:04:44.716Z,100167.85
2022-12-25T10:06:04.168Z,100162.60
2022-12-25T10:07:31.855Z,100166.13
2022-12-25T10:08:47.165Z,100163.55
2022-12-25T10:10:05.309Z,100168.05
2022-12-25T10:11:40.911Z,100163.66
2022-12-25T10:13:03.266Z,100168.16
2022-12-25T10:14:16.543Z,100170.94
2022-12-25T10:16:58.959Z,100166.80
2022-12-25T10:18:19.797Z,100165.84
2022-12-25T10:19:41.498Z,100168.53
2022-12-25T10:20:52.128Z,100165.00
2022-12-25T10:21:57.606Z,100173.98
2022-12-25T10:23:00.456Z,100167.78
2022-12-25T10:25:47.399Z,100164.50
2022-12-25T10:26:50.707Z,100174.08
2022-12-25T10:28:02.316Z,100169.67
2022-12-25T10:29:16.640Z,100177.70
2022-12-25T10:30:22.524Z,100177.70
2022-12-25T10:31:29.937Z,100171.41
2022-12-25T10:32:33.909Z,100173.13
2022-12-25T10:33:36.911Z,100174.08
2022-12-25T10:34:40.477Z,100174.86
2022-12-25T10:35:43.505Z,100173.98
2022-12-25T10:36:46.069Z,100173.88
2022-12-25T10:37:55.133Z,100176.55
2022-12-25T10:38:58.527Z,100171.20
2022-12-25T10:40:01.008Z,100176.45
2022-12-25T10:41:26.306Z,100176.39
2022-12-25T10:42:33.764Z,100175.50
2022-12-25T10:43:40.946Z,100172.73
2022-12-25T10:44:57.735Z,100172.73
2022-12-25T10:46:02.399Z,100172.73
2022-12-25T10:47:05.366Z,100175.41
2022-12-25T10:48:09.118Z,100178.08
2022-12-25T10:50:28.936Z,100177.41
2022-12-25T10:51:38.344Z,100180.76
2022-12-25T10:52:56.835Z,100173.71
2022-12-25T10:53:59.197Z,100178.96
2022-12-25T10:55:13.512Z,100181.64
2022-12-25T10:56:18.602Z,100183.33
2022-12-25T10:59:09.983Z,100182.39
2022-12-25T11:00:22.269Z,100183.33
2022-12-25T11:01:28.377Z,100183.33
2022-12-25T11:02:40.844Z,100185.06
2022-12-25T11:03:45.853Z,100190.52
2022-12-25T11:04:49.264Z,100186.99
2022-12-25T11:05:51.756Z,100190.52
2022-12-25T11:07:21.136Z,100195.87
2022-12-25T11:08:25.695Z,100196.72
2022-12-25T11:09:28.210Z,100196.72
2022-12-25T11:11:53.717Z,100195.30
2022-12-25T11:12:56.855Z,100204.84
2022-12-25T11:14:01.613Z,100198.64
2022-12-25T11:15:27.251Z,100202.17
2022-12-25T11:16:37.863Z,100215.45
2022-12-25T11:17:44.352Z,100202.95
2022-12-25T11:18:49.543Z,100213.66
2022-12-25T11:19:54.051Z,100219.86
2022-12-25T11:20:58.305Z,100219.01
2022-12-25T11:22:02.593Z,100220.70
2022-12-25T11:23:10.565Z,100218.03
2022-12-25T11:24:20.215Z,100226.05
2022-12-25T11:25:24.883Z,100217.18
2022-12-25T11:26:29.346Z,100216.23
2022-12-25T11:27:34.033Z,100218.91
2022-12-25T11:28:37.239Z,100217.08
2022-12-25T11:29:49.512Z,100220.64
2022-12-25T11:30:58.883Z,100221.48
2022-12-25T11:32:02.545Z,100220.64
2022-12-25T11:33:07.455Z,100229.52
2022-12-25T11:35:28.760Z,100224.34
2022-12-25T11:36:48.868Z,100232.19
2022-12-25T11:37:51.968Z,100232.19
2022-12-25T11:38:57.919Z,100222.33
2022-12-25T11:40:02.380Z,100226.84
2022-12-25T11:41:05.969Z,100223.22
2022-12-25T11:42:15.027Z,100232.09
2022-12-25T11:43:21.218Z,100232.94
2022-12-25T11:45:49.201Z,100228.75
2022-12-25T11:48:17.768Z,100223.39
2022-12-25T11:49:20.632Z,100234.67
2022-12-25T11:50:50.969Z,100235.61
2022-12-25T11:51:54.065Z,100238.30
2022-12-25T11:52:58.034Z,100228.47
2022-12-25T11:54:05.410Z,100224.91
2022-12-25T11:55:19.940Z,100232.94
2022-12-25T11:56:27.480Z,100231.14
2022-12-25T11:57:30.169Z,100233.82
2022-12-25T11:58:53.221Z,100224.91
2022-12-25T11:59:59.870Z,100232.94
2022-12-25T12:01:06.087Z,100232.94
2022-12-25T12:02:15.236Z,100233.04
2022-12-25T12:03:30.895Z,100241.07
2022-12-25T12:05:59.175Z,100247.59
2022-12-25T12:07:16.521Z,100246.52
2022-12-25T12:08:19.118Z,100248.45
2022-12-25T12:11:16.817Z,100248.84
2022-12-25T12:12:28.934Z,100247.86
2022-12-25T12:13:52.677Z,100255.05
2022-12-25T12:15:18.655Z,100250.64
2022-12-25T12:16:22.249Z,100256.09
2022-12-25T12:17:24.797Z,100248.16
2022-12-25T12:18:30.080Z,100246.42
2022-12-25T12:19:34.295Z,100244.70
2022-12-25T12:20:37.469Z,100254.55
2022-12-25T12:21:40.335Z,100254.66
2022-12-25T12:22:46.550Z,100255.50
2022-12-25T12:24:14.145Z,100257.33
2022-12-25T12:25:16.977Z,100256.45
2022-12-25T12:26:21.738Z,100259.12
2022-12-25T12:27:30.808Z,100267.25
2022-12-25T12:28:40.313Z,100269.08
2022-12-25T12:29:43.685Z,100269.08
2022-12-25T12:30:59.584Z,100270.90
2022-12-25T12:32:03.333Z,100269.17
2022-12-25T12:33:07.008Z,100276.31
2022-12-25T12:34:25.015Z,100275.47
2022-12-25T12:35:35.971Z,100284.44
2022-12-25T12:36:38.438Z,100284.53
2022-12-25T12:37:40.766Z,100289.03
2022-12-25T12:38:45.553Z,100285.48
2022-12-25T12:39:51.929Z,100289.98
2022-12-25T12:42:16.285Z,100283.98
2022-12-25T12:43:27.094Z,100297.16
2022-12-25T12:44:31.619Z,100291.13
2022-12-25T12:45:37.399Z,100293.14
2022-12-25T12:46:43.771Z,100295.81
2022-12-25T12:49:21.338Z,100307.58
2022-12-25T12:50:35.576Z,100303.74
2022-12-25T12:51:38.762Z,100301.16
2022-12-25T12:52:42.050Z,100299.24
2022-12-25T12:53:45.760Z,100303.74
2022-12-25T12:56:17.780Z,100304.90
2022-12-25T12:57:29.089Z,100304.69
2022-12-25T12:58:34.108Z,100308.21
2022-12-25T12:59:43.781Z,100291.31
2022-12-25T13:00:50.268Z,100293.20
2022-12-25T13:02:18.838Z,100300.44
2022-12-25T13:03:42.284Z,100301.32
2022-12-25T13:04:58.575Z,100299.59
2022-12-25T13:06:04.078Z,100300.53
2022-12-25T13:07:16.035Z,100303.20
2022-12-25T13:08:40.942Z,100302.33
2022-12-25T13:10:06.691Z,100307.68
2022-12-25T13:11:19.374Z,100311.33
2022-12-25T13:12:22.832Z,100309.69
2022-12-25T13:13:28.698Z,100311.58
2022-12-25T13:14:30.948Z,100319.70
2022-12-25T13:15:34.539Z,100320.58
2022-12-25T13:16:40.390Z,100320.58
2022-12-25T13:17:45.539Z,100322.22
2022-12-25T13:18:52.763Z,100321.33
2022-12-25T13:19:57.638Z,100325.73
2022-12-25T13:21:02.769Z,100323.82
2022-12-25T13:22:06.556Z,100322.28
2022-12-25T13:23:14.366Z,100325.05
2022-12-25T13:24:20.662Z,100322.37
2022-12-25T13:25:23.327Z,100320.58
2022-12-25T13:26:26.196Z,100323.34
2022-12-25T13:27:30.293Z,100325.14
2022-12-25T13:28:35.284Z,100324.20
2022-12-25T13:29:38.451Z,100324.20
2022-12-25T13:30:42.336Z,100327.72
2022-12-25T13:31:44.759Z,100325.93
2022-12-25T13:32:50.775Z,100328.60
2022-12-25T13:33:58.894Z,100332.98
2022-12-25T13:35:03.295Z,100335.59
2022-12-25T13:37:26.293Z,100344.72
2022-12-25T13:38:29.052Z,100343.52
2022-12-25T13:39:32.572Z,100340.84
2022-12-25T13:40:35.156Z,100347.14
2022-12-25T13:42:01.733Z,100347.14